sensor_id;sensor_type;location;lat;lon;timestamp;P1;durP1;ratioP1;P2;durP2;ratioP2
49858;SDS011;35756;52.346;13.622;2022-12-18T00:00:59;379.17;;;360.67;;
49858;SDS011;35756;52.346;13.622;2022-12-18T00:03:24;303.65;;;288.23;;
49858;SDS011;35756;52.346;13.622;2022-12-18T00:05:50;295.08;;;279.90;;
49858;SDS011;35756;52.346;13.622;2022-12-18T00:08:16;315.48;;;299.90;;
49858;SDS011;35756;52.346;13.622;2022-12-18T00:10:42;321.13;;;305.77;;
49858;SDS011;35756;52.346;13.622;2022-12-18T00:13:08;316.75;;;300.73;;
49858;SDS011;35756;52.346;13.622;2022-12-18T00:15:34;303.58;;;287.90;;
49858;SDS011;35756;52.346;13.622;2022-12-18T00:17:59;273.08;;;257.42;;
49858;SDS011;35756;52.346;13.622;2022-12-18T00:20:25;324.20;;;307.00;;
49858;SDS011;35756;52.346;13.622;2022-12-18T00:22:51;303.75;;;288.17;;
49858;SDS011;35756;52.346;13.622;2022-12-18T00:25:17;194.75;;;182.13;;
49858;SDS011;35756;52.346;13.622;2022-12-18T00:27:42;246.07;;;232.43;;
49858;SDS011;35756;52.346;13.622;2022-12-18T00:30:07;278.13;;;263.70;;
49858;SDS011;35756;52.346;13.622;2022-12-18T00:32:33;306.00;;;289.77;;
49858;SDS011;35756;52.346;13.622;2022-12-18T00:34:58;306.33;;;290.30;;
49858;SDS011;35756;52.346;13.622;2022-12-18T00:37:24;291.70;;;274.80;;
49858;SDS011;35756;52.346;13.622;2022-12-18T00:39:49;290.95;;;274.27;;
49858;SDS011;35756;52.346;13.622;2022-12-18T00:42:14;325.02;;;307.90;;
49858;SDS011;35756;52.346;13.622;2022-12-18T00:47:23;113.00;;;104.18;;
49858;SDS011;35756;52.346;13.622;2022-12-18T00:49:49;231.90;;;218.20;;
49858;SDS011;35756;52.346;13.622;2022-12-18T00:52:14;249.98;;;235.15;;
49858;SDS011;35756;52.346;13.622;2022-12-18T00:54:39;311.58;;;294.10;;
49858;SDS011;35756;52.346;13.622;2022-12-18T00:57:04;319.27;;;302.88;;
49858;SDS011;35756;52.346;13.622;2022-12-18T00:59:30;324.52;;;307.90;;
49858;SDS011;35756;52.346;13.622;2022-12-18T01:01:55;276.48;;;261.42;;
49858;SDS011;35756;52.346;13.622;2022-12-18T01:04:20;266.30;;;252.45;;
49858;SDS011;35756;52.346;13.622;2022-12-18T01:06:46;324.55;;;307.85;;
49858;SDS011;35756;52.346;13.622;2022-12-18T01:09:11;344.73;;;327.02;;
49858;SDS011;35756;52.346;13.622;2022-12-18T01:11:36;305.50;;;288.58;;
49858;SDS011;35756;52.346;13.622;2022-12-18T01:14:02;323.77;;;306.67;;
49858;SDS011;35756;52.346;13.622;2022-12-18T01:16:28;276.13;;;260.98;;
49858;SDS011;35756;52.346;13.622;2022-12-18T01:18:53;301.85;;;285.60;;
49858;SDS011;35756;52.346;13.622;2022-12-18T01:21:19;242.50;;;228.65;;
49858;SDS011;35756;52.346;13.622;2022-12-18T01:23:45;276.25;;;262.02;;
49858;SDS011;35756;52.346;13.622;2022-12-18T01:26:14;241.00;;;228.23;;
49858;SDS011;35756;52.346;13.622;2022-12-18T01:28:40;279.60;;;265.25;;
49858;SDS011;35756;52.346;13.622;2022-12-18T01:31:39;279.52;;;263.85;;
49858;SDS011;35756;52.346;13.622;2022-12-18T01:34:00;278.60;;;263.67;;
49858;SDS011;35756;52.346;13.622;2022-12-18T01:36:33;257.25;;;242.98;;
49858;SDS011;35756;52.346;13.622;2022-12-18T01:39:00;262.42;;;248.77;;
49858;SDS011;35756;52.346;13.622;2022-12-18T01:41:28;280.88;;;263.90;;
49858;SDS011;35756;52.346;13.622;2022-12-18T01:47:19;193.95;;;183.07;;
49858;SDS011;35756;52.346;13.622;2022-12-18T01:49:45;232.98;;;220.98;;
49858;SDS011;35756;52.346;13.622;2022-12-18T01:52:11;287.67;;;273.15;;
49858;SDS011;35756;52.346;13.622;2022-12-18T01:54:36;241.68;;;228.57;;
49858;SDS011;35756;52.346;13.622;2022-12-18T01:57:01;237.10;;;224.77;;
49858;SDS011;35756;52.346;13.622;2022-12-18T01:59:27;243.32;;;230.43;;
49858;SDS011;35756;52.346;13.622;2022-12-18T02:01:52;255.88;;;242.65;;
49858;SDS011;35756;52.346;13.622;2022-12-18T02:04:25;237.27;;;224.48;;
49858;SDS011;35756;52.346;13.622;2022-12-18T02:07:35;245.55;;;232.40;;
49858;SDS011;35756;52.346;13.622;2022-12-18T02:09:59;238.88;;;225.90;;
49858;SDS011;35756;52.346;13.622;2022-12-18T02:12:42;232.38;;;219.93;;
49858;SDS011;35756;52.346;13.622;2022-12-18T02:15:13;233.80;;;221.13;;
49858;SDS011;35756;52.346;13.622;2022-12-18T02:17:43;252.18;;;238.60;;
49858;SDS011;35756;52.346;13.622;2022-12-18T02:20:13;238.20;;;225.60;;
49858;SDS011;35756;52.346;13.622;2022-12-18T02:22:53;238.85;;;225.80;;
49858;SDS011;35756;52.346;13.622;2022-12-18T02:25:29;241.45;;;228.00;;
49858;SDS011;35756;52.346;13.622;2022-12-18T02:28:19;233.35;;;220.77;;
49858;SDS011;35756;52.346;13.622;2022-12-18T02:30:46;244.82;;;231.88;;
49858;SDS011;35756;52.346;13.622;2022-12-18T02:33:12;240.43;;;227.40;;
49858;SDS011;35756;52.346;13.622;2022-12-18T02:35:38;223.18;;;210.82;;
49858;SDS011;35756;52.346;13.622;2022-12-18T02:38:05;281.73;;;266.65;;
49858;SDS011;35756;52.346;13.622;2022-12-18T02:40:31;320.02;;;301.55;;
49858;SDS011;35756;52.346;13.622;2022-12-18T02:43:02;246.43;;;232.55;;
49858;SDS011;35756;52.346;13.622;2022-12-18T02:45:28;263.55;;;250.02;;
49858;SDS011;35756;52.346;13.622;2022-12-18T02:47:53;292.67;;;277.35;;
49858;SDS011;35756;52.346;13.622;2022-12-18T02:56:19;258.15;;;245.07;;
49858;SDS011;35756;52.346;13.622;2022-12-18T02:58:43;261.73;;;247.90;;
49858;SDS011;35756;52.346;13.622;2022-12-18T03:01:15;259.10;;;245.80;;
49858;SDS011;35756;52.346;13.622;2022-12-18T03:04:20;274.10;;;260.17;;
49858;SDS011;35756;52.346;13.622;2022-12-18T03:06:42;218.30;;;206.38;;
49858;SDS011;35756;52.346;13.622;2022-12-18T03:09:10;243.00;;;230.32;;
49858;SDS011;35756;52.346;13.622;2022-12-18T03:11:40;254.10;;;240.25;;
49858;SDS011;35756;52.346;13.622;2022-12-18T03:14:25;229.88;;;217.85;;
49858;SDS011;35756;52.346;13.622;2022-12-18T03:16:54;245.55;;;232.25;;
49858;SDS011;35756;52.346;13.622;2022-12-18T03:19:21;274.58;;;260.85;;
49858;SDS011;35756;52.346;13.622;2022-12-18T03:21:50;269.05;;;255.25;;
49858;SDS011;35756;52.346;13.622;2022-12-18T03:24:17;265.30;;;251.57;;
49858;SDS011;35756;52.346;13.622;2022-12-18T03:26:44;274.85;;;260.35;;
49858;SDS011;35756;52.346;13.622;2022-12-18T03:29:17;271.35;;;257.48;;
49858;SDS011;35756;52.346;13.622;2022-12-18T03:31:48;264.15;;;250.50;;
49858;SDS011;35756;52.346;13.622;2022-12-18T03:34:15;228.82;;;216.27;;
49858;SDS011;35756;52.346;13.622;2022-12-18T03:36:45;202.82;;;191.48;;
49858;SDS011;35756;52.346;13.622;2022-12-18T03:39:10;237.93;;;225.02;;
49858;SDS011;35756;52.346;13.622;2022-12-18T03:41:42;239.35;;;225.90;;
49858;SDS011;35756;52.346;13.622;2022-12-18T03:44:21;228.07;;;216.10;;
49858;SDS011;35756;52.346;13.622;2022-12-18T03:49:24;229.82;;;216.77;;
49858;SDS011;35756;52.346;13.622;2022-12-18T03:52:06;247.60;;;234.30;;
49858;SDS011;35756;52.346;13.622;2022-12-18T03:54:34;250.80;;;236.93;;
49858;SDS011;35756;52.346;13.622;2022-12-18T03:57:07;252.05;;;239.05;;
49858;SDS011;35756;52.346;13.622;2022-12-18T03:59:35;191.13;;;180.30;;
49858;SDS011;35756;52.346;13.622;2022-12-18T04:02:02;260.20;;;246.27;;
49858;SDS011;35756;52.346;13.622;2022-12-18T04:04:29;267.67;;;252.70;;
49858;SDS011;35756;52.346;13.622;2022-12-18T04:06:56;258.55;;;244.88;;
49858;SDS011;35756;52.346;13.622;2022-12-18T04:09:22;241.13;;;228.23;;
49858;SDS011;35756;52.346;13.622;2022-12-18T04:11:47;269.13;;;254.60;;
49858;SDS011;35756;52.346;13.622;2022-12-18T04:14:13;250.15;;;236.38;;
49858;SDS011;35756;52.346;13.622;2022-12-18T04:16:38;220.80;;;208.60;;
49858;SDS011;35756;52.346;13.622;2022-12-18T04:19:03;224.82;;;211.18;;
49858;SDS011;35756;52.346;13.622;2022-12-18T04:21:29;244.77;;;231.75;;
49858;SDS011;35756;52.346;13.622;2022-12-18T04:23:54;227.75;;;215.13;;
49858;SDS011;35756;52.346;13.622;2022-12-18T04:26:19;258.80;;;243.68;;
49858;SDS011;35756;52.346;13.622;2022-12-18T04:28:45;254.65;;;239.40;;
49858;SDS011;35756;52.346;13.622;2022-12-18T04:31:10;251.60;;;237.55;;
49858;SDS011;35756;52.346;13.622;2022-12-18T04:33:35;233.93;;;220.38;;
49858;SDS011;35756;52.346;13.622;2022-12-18T04:36:01;206.13;;;193.70;;
49858;SDS011;35756;52.346;13.622;2022-12-18T04:38:26;214.30;;;201.65;;
49858;SDS011;35756;52.346;13.622;2022-12-18T04:40:51;255.10;;;240.75;;
49858;SDS011;35756;52.346;13.622;2022-12-18T04:43:16;232.38;;;218.45;;
49858;SDS011;35756;52.346;13.622;2022-12-18T04:45:42;233.73;;;220.10;;
49858;SDS011;35756;52.346;13.622;2022-12-18T04:48:07;223.38;;;209.90;;
49858;SDS011;35756;52.346;13.622;2022-12-18T04:50:32;204.98;;;192.38;;
49858;SDS011;35756;52.346;13.622;2022-12-18T04:52:58;223.32;;;209.77;;
49858;SDS011;35756;52.346;13.622;2022-12-18T04:55:23;198.18;;;186.45;;
49858;SDS011;35756;52.346;13.622;2022-12-18T04:57:48;217.95;;;204.77;;
49858;SDS011;35756;52.346;13.622;2022-12-18T05:00:14;218.82;;;206.10;;
49858;SDS011;35756;52.346;13.622;2022-12-18T05:02:39;204.57;;;191.80;;
49858;SDS011;35756;52.346;13.622;2022-12-18T05:05:05;206.90;;;194.13;;
49858;SDS011;35756;52.346;13.622;2022-12-18T05:07:30;204.20;;;191.55;;
49858;SDS011;35756;52.346;13.622;2022-12-18T05:09:55;233.15;;;218.73;;
49858;SDS011;35756;52.346;13.622;2022-12-18T05:12:21;243.95;;;229.70;;
49858;SDS011;35756;52.346;13.622;2022-12-18T05:14:46;232.32;;;218.27;;
49858;SDS011;35756;52.346;13.622;2022-12-18T05:17:11;265.13;;;250.18;;
49858;SDS011;35756;52.346;13.622;2022-12-18T05:19:37;250.35;;;236.55;;
49858;SDS011;35756;52.346;13.622;2022-12-18T05:22:02;234.98;;;221.70;;
49858;SDS011;35756;52.346;13.622;2022-12-18T05:24:27;215.68;;;203.27;;
49858;SDS011;35756;52.346;13.622;2022-12-18T05:26:53;260.50;;;247.00;;
49858;SDS011;35756;52.346;13.622;2022-12-18T05:29:18;231.10;;;218.20;;
49858;SDS011;35756;52.346;13.622;2022-12-18T05:31:43;260.55;;;246.05;;
49858;SDS011;35756;52.346;13.622;2022-12-18T05:34:09;268.63;;;254.00;;
49858;SDS011;35756;52.346;13.622;2022-12-18T05:36:34;240.05;;;225.88;;
49858;SDS011;35756;52.346;13.622;2022-12-18T05:38:59;281.35;;;266.83;;
49858;SDS011;35756;52.346;13.622;2022-12-18T05:41:25;250.18;;;236.75;;
49858;SDS011;35756;52.346;13.622;2022-12-18T05:43:50;238.00;;;224.60;;
49858;SDS011;35756;52.346;13.622;2022-12-18T05:46:16;243.48;;;229.93;;
49858;SDS011;35756;52.346;13.622;2022-12-18T05:48:45;252.27;;;238.90;;
49858;SDS011;35756;52.346;13.622;2022-12-18T05:51:11;272.35;;;256.83;;
49858;SDS011;35756;52.346;13.622;2022-12-18T05:53:39;270.60;;;255.77;;
49858;SDS011;35756;52.346;13.622;2022-12-18T05:56:06;237.45;;;224.05;;
49858;SDS011;35756;52.346;13.622;2022-12-18T05:58:35;285.85;;;269.25;;
49858;SDS011;35756;52.346;13.622;2022-12-18T06:03:33;221.40;;;208.30;;
49858;SDS011;35756;52.346;13.622;2022-12-18T06:05:59;219.82;;;207.07;;
49858;SDS011;35756;52.346;13.622;2022-12-18T06:08:24;252.27;;;238.38;;
49858;SDS011;35756;52.346;13.622;2022-12-18T06:10:50;306.85;;;289.63;;
49858;SDS011;35756;52.346;13.622;2022-12-18T06:13:16;250.63;;;237.48;;
49858;SDS011;35756;52.346;13.622;2022-12-18T06:15:42;200.90;;;189.30;;
49858;SDS011;35756;52.346;13.622;2022-12-18T06:18:07;226.73;;;214.27;;
49858;SDS011;35756;52.346;13.622;2022-12-18T06:20:32;219.88;;;207.27;;
49858;SDS011;35756;52.346;13.622;2022-12-18T06:22:58;261.17;;;247.27;;
49858;SDS011;35756;52.346;13.622;2022-12-18T06:25:23;235.18;;;222.02;;
49858;SDS011;35756;52.346;13.622;2022-12-18T06:27:48;259.65;;;245.88;;
49858;SDS011;35756;52.346;13.622;2022-12-18T06:30:14;268.52;;;253.88;;
49858;SDS011;35756;52.346;13.622;2022-12-18T06:32:39;247.25;;;234.05;;
49858;SDS011;35756;52.346;13.622;2022-12-18T06:35:04;258.50;;;245.15;;
49858;SDS011;35756;52.346;13.622;2022-12-18T06:37:30;275.77;;;261.42;;
49858;SDS011;35756;52.346;13.622;2022-12-18T06:39:56;259.20;;;245.68;;
49858;SDS011;35756;52.346;13.622;2022-12-18T06:42:21;275.27;;;260.77;;
49858;SDS011;35756;52.346;13.622;2022-12-18T06:44:47;255.60;;;241.63;;
49858;SDS011;35756;52.346;13.622;2022-12-18T06:47:12;244.02;;;230.00;;
49858;SDS011;35756;52.346;13.622;2022-12-18T06:49:37;228.98;;;216.93;;
49858;SDS011;35756;52.346;13.622;2022-12-18T06:52:03;248.95;;;235.27;;
49858;SDS011;35756;52.346;13.622;2022-12-18T06:54:28;234.77;;;222.35;;
49858;SDS011;35756;52.346;13.622;2022-12-18T06:56:53;266.73;;;252.65;;
49858;SDS011;35756;52.346;13.622;2022-12-18T06:59:19;265.67;;;251.20;;
49858;SDS011;35756;52.346;13.622;2022-12-18T07:01:44;245.93;;;232.98;;
49858;SDS011;35756;52.346;13.622;2022-12-18T07:04:09;259.85;;;246.57;;
49858;SDS011;35756;52.346;13.622;2022-12-18T07:06:35;231.27;;;218.23;;
49858;SDS011;35756;52.346;13.622;2022-12-18T07:09:00;230.98;;;218.73;;
49858;SDS011;35756;52.346;13.622;2022-12-18T07:11:25;264.63;;;251.07;;
49858;SDS011;35756;52.346;13.622;2022-12-18T07:13:51;257.33;;;242.93;;
49858;SDS011;35756;52.346;13.622;2022-12-18T07:16:18;246.80;;;233.65;;
49858;SDS011;35756;52.346;13.622;2022-12-18T07:18:44;243.35;;;230.27;;
49858;SDS011;35756;52.346;13.622;2022-12-18T07:21:14;250.27;;;236.60;;
49858;SDS011;35756;52.346;13.622;2022-12-18T07:23:41;260.63;;;246.68;;
49858;SDS011;35756;52.346;13.622;2022-12-18T07:26:07;226.85;;;214.48;;
49858;SDS011;35756;52.346;13.622;2022-12-18T07:28:35;255.32;;;240.30;;
49858;SDS011;35756;52.346;13.622;2022-12-18T07:31:08;283.70;;;268.85;;
49858;SDS011;35756;52.346;13.622;2022-12-18T07:33:34;204.82;;;193.15;;
49858;SDS011;35756;52.346;13.622;2022-12-18T07:36:00;195.32;;;184.70;;
49858;SDS011;35756;52.346;13.622;2022-12-18T07:38:26;241.02;;;228.55;;
49858;SDS011;35756;52.346;13.622;2022-12-18T07:40:51;165.20;;;154.88;;
49858;SDS011;35756;52.346;13.622;2022-12-18T07:43:17;203.13;;;191.57;;
49858;SDS011;35756;52.346;13.622;2022-12-18T07:45:42;191.70;;;180.02;;
49858;SDS011;35756;52.346;13.622;2022-12-18T07:48:08;236.45;;;223.48;;
49858;SDS011;35756;52.346;13.622;2022-12-18T07:50:33;219.27;;;203.75;;
49858;SDS011;35756;52.346;13.622;2022-12-18T07:52:59;210.82;;;198.93;;
49858;SDS011;35756;52.346;13.622;2022-12-18T07:55:28;135.88;;;125.93;;
49858;SDS011;35756;52.346;13.622;2022-12-18T07:57:56;137.05;;;127.10;;
49858;SDS011;35756;52.346;13.622;2022-12-18T08:00:21;167.88;;;156.45;;
49858;SDS011;35756;52.346;13.622;2022-12-18T08:02:47;134.25;;;123.72;;
49858;SDS011;35756;52.346;13.622;2022-12-18T08:05:12;115.00;;;106.10;;
49858;SDS011;35756;52.346;13.622;2022-12-18T08:07:38;149.13;;;137.75;;
49858;SDS011;35756;52.346;13.622;2022-12-18T08:10:04;74.35;;;67.82;;
49858;SDS011;35756;52.346;13.622;2022-12-18T08:12:30;140.18;;;129.85;;
49858;SDS011;35756;52.346;13.622;2022-12-18T08:14:55;153.07;;;142.85;;
49858;SDS011;35756;52.346;13.622;2022-12-18T08:17:20;89.75;;;81.40;;
49858;SDS011;35756;52.346;13.622;2022-12-18T08:19:46;92.47;;;83.75;;
49858;SDS011;35756;52.346;13.622;2022-12-18T08:22:11;87.35;;;79.25;;
49858;SDS011;35756;52.346;13.622;2022-12-18T08:24:36;132.30;;;121.28;;
49858;SDS011;35756;52.346;13.622;2022-12-18T08:27:01;214.80;;;199.02;;
49858;SDS011;35756;52.346;13.622;2022-12-18T08:29:27;107.43;;;98.75;;
49858;SDS011;35756;52.346;13.622;2022-12-18T08:31:52;83.47;;;75.45;;
49858;SDS011;35756;52.346;13.622;2022-12-18T08:34:18;93.95;;;85.80;;
49858;SDS011;35756;52.346;13.622;2022-12-18T08:36:43;88.00;;;79.47;;
49858;SDS011;35756;52.346;13.622;2022-12-18T08:39:08;105.88;;;98.00;;
49858;SDS011;35756;52.346;13.622;2022-12-18T08:41:34;84.53;;;76.55;;
49858;SDS011;35756;52.346;13.622;2022-12-18T08:43:59;214.25;;;200.80;;
49858;SDS011;35756;52.346;13.622;2022-12-18T08:49:08;187.82;;;175.30;;
49858;SDS011;35756;52.346;13.622;2022-12-18T08:51:34;135.65;;;125.35;;
49858;SDS011;35756;52.346;13.622;2022-12-18T08:54:01;115.95;;;106.18;;
49858;SDS011;35756;52.346;13.622;2022-12-18T08:56:26;139.65;;;128.07;;
49858;SDS011;35756;52.346;13.622;2022-12-18T08:58:52;74.90;;;67.65;;
49858;SDS011;35756;52.346;13.622;2022-12-18T09:01:18;98.70;;;90.40;;
49858;SDS011;35756;52.346;13.622;2022-12-18T09:03:43;94.05;;;85.55;;
49858;SDS011;35756;52.346;13.622;2022-12-18T09:06:16;133.65;;;123.00;;
49858;SDS011;35756;52.346;13.622;2022-12-18T09:08:43;137.30;;;127.07;;
49858;SDS011;35756;52.346;13.622;2022-12-18T09:11:13;80.90;;;72.93;;
49858;SDS011;35756;52.346;13.622;2022-12-18T09:13:39;83.65;;;75.72;;
49858;SDS011;35756;52.346;13.622;2022-12-18T09:16:05;92.85;;;84.70;;
49858;SDS011;35756;52.346;13.622;2022-12-18T09:18:30;86.70;;;78.75;;
49858;SDS011;35756;52.346;13.622;2022-12-18T09:20:56;98.32;;;88.90;;
49858;SDS011;35756;52.346;13.622;2022-12-18T09:23:21;78.68;;;71.00;;
49858;SDS011;35756;52.346;13.622;2022-12-18T09:25:47;171.48;;;159.75;;
49858;SDS011;35756;52.346;13.622;2022-12-18T09:28:13;118.32;;;107.07;;
49858;SDS011;35756;52.346;13.622;2022-12-18T09:30:41;196.32;;;183.63;;
49858;SDS011;35756;52.346;13.622;2022-12-18T09:33:12;81.35;;;74.30;;
49858;SDS011;35756;52.346;13.622;2022-12-18T09:35:38;108.93;;;98.97;;
49858;SDS011;35756;52.346;13.622;2022-12-18T09:38:03;118.60;;;109.15;;
49858;SDS011;35756;52.346;13.622;2022-12-18T09:40:32;154.02;;;144.15;;
49858;SDS011;35756;52.346;13.622;2022-12-18T09:43:01;130.65;;;120.20;;
49858;SDS011;35756;52.346;13.622;2022-12-18T09:45:29;130.98;;;122.00;;
49858;SDS011;35756;52.346;13.622;2022-12-18T09:47:57;222.90;;;210.75;;
49858;SDS011;35756;52.346;13.622;2022-12-18T09:52:59;143.68;;;133.10;;
49858;SDS011;35756;52.346;13.622;2022-12-18T09:55:30;227.43;;;214.45;;
49858;SDS011;35756;52.346;13.622;2022-12-18T09:58:00;207.50;;;195.52;;
49858;SDS011;35756;52.346;13.622;2022-12-18T10:00:29;240.70;;;226.27;;
49858;SDS011;35756;52.346;13.622;2022-12-18T10:03:11;247.48;;;226.90;;
49858;SDS011;35756;52.346;13.622;2022-12-18T10:17:07;230.02;;;217.15;;
49858;SDS011;35756;52.346;13.622;2022-12-18T10:25:02;117.80;;;109.32;;
49858;SDS011;35756;52.346;13.622;2022-12-18T10:27:31;175.90;;;164.90;;
49858;SDS011;35756;52.346;13.622;2022-12-18T10:29:56;159.15;;;148.43;;
49858;SDS011;35756;52.346;13.622;2022-12-18T10:32:23;140.63;;;130.68;;
49858;SDS011;35756;52.346;13.622;2022-12-18T10:34:51;228.30;;;216.02;;
49858;SDS011;35756;52.346;13.622;2022-12-18T10:37:19;208.80;;;197.18;;
49858;SDS011;35756;52.346;13.622;2022-12-18T10:39:46;203.95;;;191.63;;
49858;SDS011;35756;52.346;13.622;2022-12-18T10:42:32;195.05;;;182.68;;
49858;SDS011;35756;52.346;13.622;2022-12-18T10:45:11;202.80;;;190.55;;
49858;SDS011;35756;52.346;13.622;2022-12-18T10:47:45;191.00;;;179.25;;
49858;SDS011;35756;52.346;13.622;2022-12-18T10:50:28;229.00;;;217.05;;
49858;SDS011;35756;52.346;13.622;2022-12-18T10:52:58;196.35;;;184.98;;
49858;SDS011;35756;52.346;13.622;2022-12-18T10:55:25;172.18;;;161.55;;
49858;SDS011;35756;52.346;13.622;2022-12-18T10:57:56;192.15;;;180.20;;
49858;SDS011;35756;52.346;13.622;2022-12-18T11:00:38;225.30;;;213.02;;
49858;SDS011;35756;52.346;13.622;2022-12-18T11:03:07;215.15;;;203.30;;
49858;SDS011;35756;52.346;13.622;2022-12-18T11:06:36;305.67;;;289.67;;
49858;SDS011;35756;52.346;13.622;2022-12-18T11:08:58;227.75;;;215.27;;
49858;SDS011;35756;52.346;13.622;2022-12-18T11:11:24;175.50;;;164.15;;
49858;SDS011;35756;52.346;13.622;2022-12-18T11:14:41;301.80;;;285.98;;
49858;SDS011;35756;52.346;13.622;2022-12-18T11:16:44;265.27;;;251.32;;
49858;SDS011;35756;52.346;13.622;2022-12-18T11:19:21;328.67;;;311.90;;
49858;SDS011;35756;52.346;13.622;2022-12-18T11:21:51;199.93;;;188.75;;
49858;SDS011;35756;52.346;13.622;2022-12-18T11:27:05;206.98;;;195.98;;
49858;SDS011;35756;52.346;13.622;2022-12-18T11:29:34;221.23;;;209.88;;
49858;SDS011;35756;52.346;13.622;2022-12-18T11:34:49;218.57;;;206.75;;
49858;SDS011;35756;52.346;13.622;2022-12-18T11:37:17;193.30;;;182.40;;
49858;SDS011;35756;52.346;13.622;2022-12-18T11:39:49;169.13;;;159.35;;
49858;SDS011;35756;52.346;13.622;2022-12-18T11:55:25;293.02;;;278.85;;
49858;SDS011;35756;52.346;13.622;2022-12-18T11:58:34;336.10;;;319.27;;
49858;SDS011;35756;52.346;13.622;2022-12-18T12:03:56;250.05;;;237.32;;
49858;SDS011;35756;52.346;13.622;2022-12-18T13:54:53;394.67;;;372.00;;
49858;SDS011;35756;52.346;13.622;2022-12-18T13:57:25;334.60;;;318.80;;
49858;SDS011;35756;52.346;13.622;2022-12-18T14:02:23;258.02;;;245.98;;
49858;SDS011;35756;52.346;13.622;2022-12-18T14:04:50;275.45;;;260.90;;
49858;SDS011;35756;52.346;13.622;2022-12-18T14:07:17;256.67;;;244.50;;
49858;SDS011;35756;52.346;13.622;2022-12-18T14:09:45;270.02;;;256.42;;
49858;SDS011;35756;52.346;13.622;2022-12-18T14:12:17;238.57;;;225.50;;
49858;SDS011;35756;52.346;13.622;2022-12-18T14:15:03;255.90;;;242.40;;
49858;SDS011;35756;52.346;13.622;2022-12-18T14:17:31;292.33;;;276.15;;
49858;SDS011;35756;52.346;13.622;2022-12-18T14:19:57;209.98;;;199.10;;
49858;SDS011;35756;52.346;13.622;2022-12-18T14:22:25;247.55;;;234.80;;
49858;SDS011;35756;52.346;13.622;2022-12-18T14:25:10;200.55;;;190.00;;
49858;SDS011;35756;52.346;13.622;2022-12-18T14:27:41;355.85;;;339.52;;
49858;SDS011;35756;52.346;13.622;2022-12-18T14:30:45;235.23;;;223.65;;
49858;SDS011;35756;52.346;13.622;2022-12-18T14:35:33;106.10;;;99.43;;
49858;SDS011;35756;52.346;13.622;2022-12-18T14:40:40;263.55;;;247.23;;
49858;SDS011;35756;52.346;13.622;2022-12-18T14:43:08;203.45;;;189.65;;
49858;SDS011;35756;52.346;13.622;2022-12-18T14:45:35;105.72;;;98.68;;
49858;SDS011;35756;52.346;13.622;2022-12-18T14:48:05;206.43;;;195.77;;
49858;SDS011;35756;52.346;13.622;2022-12-18T14:50:42;142.77;;;135.13;;
49858;SDS011;35756;52.346;13.622;2022-12-18T14:53:21;89.50;;;83.03;;
49858;SDS011;35756;52.346;13.622;2022-12-18T14:55:48;181.95;;;171.85;;
49858;SDS011;35756;52.346;13.622;2022-12-18T14:58:14;171.73;;;162.07;;
49858;SDS011;35756;52.346;13.622;2022-12-18T15:00:41;88.47;;;82.32;;
49858;SDS011;35756;52.346;13.622;2022-12-18T15:03:07;83.93;;;77.40;;
49858;SDS011;35756;52.346;13.622;2022-12-18T15:05:34;127.93;;;120.28;;
49858;SDS011;35756;52.346;13.622;2022-12-18T15:08:00;209.05;;;196.70;;
49858;SDS011;35756;52.346;13.622;2022-12-18T15:10:27;109.05;;;102.00;;
49858;SDS011;35756;52.346;13.622;2022-12-18T15:18:01;367.83;;;346.25;;
49858;SDS011;35756;52.346;13.622;2022-12-18T15:20:39;187.85;;;177.13;;
49858;SDS011;35756;52.346;13.622;2022-12-18T15:23:35;112.60;;;105.60;;
49858;SDS011;35756;52.346;13.622;2022-12-18T15:26:04;90.85;;;84.40;;
49858;SDS011;35756;52.346;13.622;2022-12-18T15:28:35;151.98;;;142.50;;
49858;SDS011;35756;52.346;13.622;2022-12-18T15:31:17;96.68;;;90.28;;
49858;SDS011;35756;52.346;13.622;2022-12-18T15:36:18;131.07;;;123.30;;
49858;SDS011;35756;52.346;13.622;2022-12-18T15:38:48;159.38;;;150.57;;
49858;SDS011;35756;52.346;13.622;2022-12-18T15:41:15;180.98;;;170.85;;
49858;SDS011;35756;52.346;13.622;2022-12-18T15:43:41;164.43;;;154.70;;
49858;SDS011;35756;52.346;13.622;2022-12-18T15:46:10;173.05;;;163.82;;
49858;SDS011;35756;52.346;13.622;2022-12-18T15:48:46;236.25;;;223.55;;
49858;SDS011;35756;52.346;13.622;2022-12-18T15:51:17;234.70;;;222.45;;
49858;SDS011;35756;52.346;13.622;2022-12-18T15:53:43;141.98;;;133.48;;
49858;SDS011;35756;52.346;13.622;2022-12-18T15:56:13;156.00;;;146.45;;
49858;SDS011;35756;52.346;13.622;2022-12-18T15:58:58;167.65;;;158.73;;
49858;SDS011;35756;52.346;13.622;2022-12-18T16:01:24;175.15;;;165.77;;
49858;SDS011;35756;52.346;13.622;2022-12-18T16:03:51;140.20;;;131.90;;
49858;SDS011;35756;52.346;13.622;2022-12-18T16:06:17;193.30;;;182.13;;
49858;SDS011;35756;52.346;13.622;2022-12-18T16:08:42;218.50;;;207.13;;
49858;SDS011;35756;52.346;13.622;2022-12-18T16:11:41;205.70;;;193.77;;
49858;SDS011;35756;52.346;13.622;2022-12-18T16:14:23;208.32;;;196.63;;
49858;SDS011;35756;52.346;13.622;2022-12-18T16:16:54;253.00;;;240.07;;
49858;SDS011;35756;52.346;13.622;2022-12-18T16:19:21;243.98;;;231.57;;
49858;SDS011;35756;52.346;13.622;2022-12-18T16:21:47;170.70;;;160.60;;
49858;SDS011;35756;52.346;13.622;2022-12-18T16:24:17;155.65;;;146.98;;
49858;SDS011;35756;52.346;13.622;2022-12-18T16:26:44;184.10;;;174.70;;
49858;SDS011;35756;52.346;13.622;2022-12-18T16:29:09;144.70;;;136.27;;
49858;SDS011;35756;52.346;13.622;2022-12-18T16:31:35;198.65;;;188.68;;
49858;SDS011;35756;52.346;13.622;2022-12-18T16:36:40;241.60;;;229.48;;
49858;SDS011;35756;52.346;13.622;2022-12-18T16:39:05;236.45;;;224.60;;
49858;SDS011;35756;52.346;13.622;2022-12-18T16:41:31;182.75;;;173.43;;
49858;SDS011;35756;52.346;13.622;2022-12-18T16:43:57;248.55;;;236.15;;
49858;SDS011;35756;52.346;13.622;2022-12-18T16:46:22;258.52;;;245.50;;
49858;SDS011;35756;52.346;13.622;2022-12-18T16:48:47;235.95;;;223.88;;
49858;SDS011;35756;52.346;13.622;2022-12-18T16:51:13;217.88;;;207.10;;
49858;SDS011;35756;52.346;13.622;2022-12-18T16:53:38;211.90;;;201.07;;
49858;SDS011;35756;52.346;13.622;2022-12-18T16:56:03;204.52;;;193.70;;
49858;SDS011;35756;52.346;13.622;2022-12-18T16:58:29;222.45;;;210.02;;
49858;SDS011;35756;52.346;13.622;2022-12-18T17:00:54;173.18;;;163.68;;